sensor_id;sensor_type;location;lat;lon;timestamp;pressure;altitude;pressure_sealevel;temperature;humidity
78488;BME280;67885;49.758;9.582;2023-04-24T00:02:13;98086.41;;;16.20;52.22
78488;BME280;67885;49.758;9.582;2023-04-24T00:04:41;98077.13;;;16.16;52.63
78488;BME280;67885;49.758;9.582;2023-04-24T00:07:09;98090.38;;;16.24;52.41
78488;BME280;67885;49.758;9.582;2023-04-24T00:09:36;98105.94;;;16.21;52.63
78488;BME280;67885;49.758;9.582;2023-04-24T00:12:03;98061.19;;;16.08;52.39
78488;BME280;67885;49.758;9.582;2023-04-24T00:14:30;98081.69;;;16.22;52.07
78488;BME280;67885;49.758;9.582;2023-04-24T00:16:57;98092.28;;;16.30;51.62
78488;BME280;67885;49.758;9.582;2023-04-24T00:19:24;98086.13;;;16.30;51.63
78488;BME280;67885;49.758;9.582;2023-04-24T00:21:51;98059.81;;;16.12;51.86
78488;BME280;67885;49.758;9.582;2023-04-24T00:24:19;98080.31;;;16.26;52.10
78488;BME280;67885;49.758;9.582;2023-04-24T00:26:46;98079.28;;;16.27;52.59
78488;BME280;67885;49.758;9.582;2023-04-24T00:29:13;98056.84;;;16.22;51.99
78488;BME280;67885;49.758;9.582;2023-04-24T00:31:40;98065.00;;;16.35;51.76
78488;BME280;67885;49.758;9.582;2023-04-24T00:34:06;98034.19;;;16.17;51.51
78488;BME280;67885;49.758;9.582;2023-04-24T00:36:33;98025.75;;;15.99;51.70
78488;BME280;67885;49.758;9.582;2023-04-24T00:39:01;98057.72;;;16.29;52.21
78488;BME280;67885;49.758;9.582;2023-04-24T00:41:29;98040.47;;;16.10;52.45
78488;BME280;67885;49.758;9.582;2023-04-24T00:43:56;98043.69;;;16.05;52.21
78488;BME280;67885;49.758;9.582;2023-04-24T00:46:23;98066.97;;;16.11;52.67
78488;BME280;67885;49.758;9.582;2023-04-24T00:48:50;98064.22;;;16.05;52.63
78488;BME280;67885;49.758;9.582;2023-04-24T00:51:17;98071.03;;;16.07;52.58
78488;BME280;67885;49.758;9.582;2023-04-24T00:53:43;98070.78;;;16.02;52.31
78488;BME280;67885;49.758;9.582;2023-04-24T00:56:12;98023.25;;;15.67;52.56
78488;BME280;67885;49.758;9.582;2023-04-24T00:58:39;98078.53;;;15.97;52.66
78488;BME280;67885;49.758;9.582;2023-04-24T01:01:07;98062.41;;;15.90;52.99
78488;BME280;67885;49.758;9.582;2023-04-24T01:03:34;98063.03;;;15.92;52.43
78488;BME280;67885;49.758;9.582;2023-04-24T01:06:03;98065.44;;;16.02;52.70
78488;BME280;67885;49.758;9.582;2023-04-24T01:08:30;98071.59;;;16.02;52.19
78488;BME280;67885;49.758;9.582;2023-04-24T01:10:57;98073.00;;;15.98;52.19
78488;BME280;67885;49.758;9.582;2023-04-24T01:13:25;98072.19;;;15.98;52.27
78488;BME280;67885;49.758;9.582;2023-04-24T01:15:52;98047.78;;;15.86;52.27
78488;BME280;67885;49.758;9.582;2023-04-24T01:18:19;98059.63;;;15.98;52.10
78488;BME280;67885;49.758;9.582;2023-04-24T01:20:46;98058.81;;;15.98;52.04
78488;BME280;67885;49.758;9.582;2023-04-24T01:23:16;98050.63;;;15.84;52.41
78488;BME280;67885;49.758;9.582;2023-04-24T01:25:43;98048.41;;;15.88;52.36
78488;BME280;67885;49.758;9.582;2023-04-24T01:28:10;98060.03;;;15.95;52.17
78488;BME280;67885;49.758;9.582;2023-04-24T01:30:39;98053.41;;;15.91;52.37
78488;BME280;67885;49.758;9.582;2023-04-24T01:33:06;98051.06;;;15.88;52.45
78488;BME280;67885;49.758;9.582;2023-04-24T01:35:33;98039.00;;;15.77;52.70
78488;BME280;67885;49.758;9.582;2023-04-24T01:38:01;98049.34;;;15.80;53.05
78488;BME280;67885;49.758;9.582;2023-04-24T01:40:29;98051.53;;;15.77;52.84
78488;BME280;67885;49.758;9.582;2023-04-24T01:42:57;98032.75;;;15.70;53.32
78488;BME280;67885;49.758;9.582;2023-04-24T01:45:24;98043.16;;;15.80;52.95
78488;BME280;67885;49.758;9.582;2023-04-24T01:47:51;98045.84;;;15.80;53.05
78488;BME280;67885;49.758;9.582;2023-04-24T01:50:18;98047.50;;;15.81;53.36
78488;BME280;67885;49.758;9.582;2023-04-24T01:52:45;98027.78;;;15.67;53.14
78488;BME280;67885;49.758;9.582;2023-04-24T01:55:11;98052.09;;;15.72;53.31
78488;BME280;67885;49.758;9.582;2023-04-24T01:57:40;98047.66;;;15.64;53.84
78488;BME280;67885;49.758;9.582;2023-04-24T02:00:07;98055.94;;;15.70;53.25
78488;BME280;67885;49.758;9.582;2023-04-24T02:02:34;98043.13;;;15.65;53.56
78488;BME280;67885;49.758;9.582;2023-04-24T02:05:00;98050.41;;;15.71;53.19
78488;BME280;67885;49.758;9.582;2023-04-24T02:07:28;98037.59;;;15.66;53.46
78488;BME280;67885;49.758;9.582;2023-04-24T02:09:54;98043.03;;;15.73;54.16
78488;BME280;67885;49.758;9.582;2023-04-24T02:12:21;98022.53;;;15.59;52.90
78488;BME280;67885;49.758;9.582;2023-04-24T02:14:49;98036.88;;;15.73;53.30
78488;BME280;67885;49.758;9.582;2023-04-24T02:17:16;98011.13;;;15.50;53.48
78488;BME280;67885;49.758;9.582;2023-04-24T02:19:42;98033.84;;;15.76;52.87
78488;BME280;67885;49.758;9.582;2023-04-24T02:22:09;98026.03;;;15.74;53.13
78488;BME280;67885;49.758;9.582;2023-04-24T02:24:36;98026.69;;;15.76;53.49
78488;BME280;67885;49.758;9.582;2023-04-24T02:27:03;98031.81;;;15.78;53.27
78488;BME280;67885;49.758;9.582;2023-04-24T02:29:29;98021.41;;;15.68;52.49
78488;BME280;67885;49.758;9.582;2023-04-24T02:31:57;98044.00;;;15.80;53.22
78488;BME280;67885;49.758;9.582;2023-04-24T02:34:24;98038.69;;;15.80;53.12
78488;BME280;67885;49.758;9.582;2023-04-24T02:36:51;98048.31;;;15.81;53.19
78488;BME280;67885;49.758;9.582;2023-04-24T02:39:19;98044.31;;;15.77;53.00
78488;BME280;67885;49.758;9.582;2023-04-24T02:41:45;98046.69;;;15.80;53.37
78488;BME280;67885;49.758;9.582;2023-04-24T02:44:12;98038.28;;;15.68;53.34
78488;BME280;67885;49.758;9.582;2023-04-24T02:46:39;98044.25;;;15.85;53.03
78488;BME280;67885;49.758;9.582;2023-04-24T02:49:07;98038.56;;;15.89;53.38
78488;BME280;67885;49.758;9.582;2023-04-24T02:51:34;98039.66;;;15.94;52.49
78488;BME280;67885;49.758;9.582;2023-04-24T02:54:03;98038.66;;;15.95;52.29
78488;BME280;67885;49.758;9.582;2023-04-24T02:56:30;98030.47;;;15.97;52.23
78488;BME280;67885;49.758;9.582;2023-04-24T02:58:56;98030.06;;;16.00;52.08
78488;BME280;67885;49.758;9.582;2023-04-24T03:01:23;98016.16;;;15.90;52.10
78488;BME280;67885;49.758;9.582;2023-04-24T03:03:50;97979.94;;;15.65;51.78
78488;BME280;67885;49.758;9.582;2023-04-24T03:06:18;98026.50;;;15.93;52.29
78488;BME280;67885;49.758;9.582;2023-04-24T03:08:46;98030.00;;;15.93;52.57
78488;BME280;67885;49.758;9.582;2023-04-24T03:11:12;98018.69;;;15.91;51.74
78488;BME280;67885;49.758;9.582;2023-04-24T03:13:39;97994.00;;;15.74;52.46
78488;BME280;67885;49.758;9.582;2023-04-24T03:16:06;98010.13;;;15.81;52.82
78488;BME280;67885;49.758;9.582;2023-04-24T03:18:32;98013.81;;;15.80;52.48
78488;BME280;67885;49.758;9.582;2023-04-24T03:20:59;98006.97;;;15.77;52.76
78488;BME280;67885;49.758;9.582;2023-04-24T03:23:27;98002.66;;;15.76;52.55
78488;BME280;67885;49.758;9.582;2023-04-24T03:25:53;97989.31;;;15.76;52.69
78488;BME280;67885;49.758;9.582;2023-04-24T03:28:20;97991.97;;;15.76;52.72
78488;BME280;67885;49.758;9.582;2023-04-24T03:30:47;97878.75;;;15.04;52.87
78488;BME280;67885;49.758;9.582;2023-04-24T03:33:13;97973.66;;;15.58;52.30
78488;BME280;67885;49.758;9.582;2023-04-24T03:35:40;97995.38;;;15.70;52.51
78488;BME280;67885;49.758;9.582;2023-04-24T03:38:07;97988.94;;;15.64;52.81
78488;BME280;67885;49.758;9.582;2023-04-24T03:40:35;97992.03;;;15.68;52.39
78488;BME280;67885;49.758;9.582;2023-04-24T03:43:01;97993.81;;;15.61;52.69
78488;BME280;67885;49.758;9.582;2023-04-24T03:45:28;97998.34;;;15.60;52.44
78488;BME280;67885;49.758;9.582;2023-04-24T03:47:55;97982.41;;;15.52;53.09
78488;BME280;67885;49.758;9.582;2023-04-24T03:50:22;97998.16;;;15.62;52.92
78488;BME280;67885;49.758;9.582;2023-04-24T03:52:48;98005.34;;;15.61;52.37
78488;BME280;67885;49.758;9.582;2023-04-24T03:55:15;98003.00;;;15.58;52.63
78488;BME280;67885;49.758;9.582;2023-04-24T03:57:43;98002.19;;;15.58;53.20
78488;BME280;67885;49.758;9.582;2023-04-24T04:00:11;97999.44;;;15.51;53.86
78488;BME280;67885;49.758;9.582;2023-04-24T04:02:38;97965.13;;;15.33;53.31
78488;BME280;67885;49.758;9.582;2023-04-24T04:05:04;98015.81;;;15.63;53.42
78488;BME280;67885;49.758;9.582;2023-04-24T04:07:31;98016.44;;;15.65;53.02
78488;BME280;67885;49.758;9.582;2023-04-24T04:09:58;98015.25;;;15.67;52.95
78488;BME280;67885;49.758;9.582;2023-04-24T04:12:24;98012.22;;;15.71;53.34
78488;BME280;67885;49.758;9.582;2023-04-24T04:14:52;98021.88;;;15.72;52.89
78488;BME280;67885;49.758;9.582;2023-04-24T04:17:19;98028.06;;;15.72;53.01
78488;BME280;67885;49.758;9.582;2023-04-24T04:19:45;98034.59;;;15.70;53.70
78488;BME280;67885;49.758;9.582;2023-04-24T04:22:12;98038.19;;;15.62;54.55
78488;BME280;67885;49.758;9.582;2023-04-24T04:24:38;98057.84;;;15.46;53.38
78488;BME280;67885;49.758;9.582;2023-04-24T04:27:06;98062.97;;;15.32;53.50
78488;BME280;67885;49.758;9.582;2023-04-24T04:29:33;98065.91;;;15.23;53.91
78488;BME280;67885;49.758;9.582;2023-04-24T04:32:02;98060.06;;;15.04;54.80
78488;BME280;67885;49.758;9.582;2023-04-24T04:34:29;98073.06;;;15.07;54.93
78488;BME280;67885;49.758;9.582;2023-04-24T04:36:57;98060.38;;;14.86;55.24
78488;BME280;67885;49.758;9.582;2023-04-24T04:39:26;98084.00;;;15.12;54.88
78488;BME280;67885;49.758;9.582;2023-04-24T04:41:53;98081.00;;;15.15;55.15
78488;BME280;67885;49.758;9.582;2023-04-24T04:44:20;98088.81;;;15.17;54.54
78488;BME280;67885;49.758;9.582;2023-04-24T04:46:46;98043.50;;;14.94;54.57
78488;BME280;67885;49.758;9.582;2023-04-24T04:49:14;98076.72;;;15.06;53.80
78488;BME280;67885;49.758;9.582;2023-04-24T04:51:42;98082.47;;;15.18;54.49
78488;BME280;67885;49.758;9.582;2023-04-24T04:54:08;98078.63;;;15.21;53.75
78488;BME280;67885;49.758;9.582;2023-04-24T04:56:35;98081.09;;;15.22;53.35
78488;BME280;67885;49.758;9.582;2023-04-24T04:59:01;98042.97;;;14.98;53.21
78488;BME280;67885;49.758;9.582;2023-04-24T05:01:28;98089.72;;;15.24;53.09
78488;BME280;67885;49.758;9.582;2023-04-24T05:03:54;98084.88;;;15.28;53.78
78488;BME280;67885;49.758;9.582;2023-04-24T05:06:22;98087.06;;;15.24;51.70
78488;BME280;67885;49.758;9.582;2023-04-24T05:08:49;98103.97;;;15.16;52.57
78488;BME280;67885;49.758;9.582;2023-04-24T05:11:16;98103.03;;;15.09;51.90
78488;BME280;67885;49.758;9.582;2023-04-24T05:13:43;98114.06;;;15.06;52.27
78488;BME280;67885;49.758;9.582;2023-04-24T05:16:09;98118.56;;;15.06;53.26
78488;BME280;67885;49.758;9.582;2023-04-24T05:18:36;98103.47;;;14.98;53.14
78488;BME280;67885;49.758;9.582;2023-04-24T05:21:03;98122.06;;;15.06;52.41
78488;BME280;67885;49.758;9.582;2023-04-24T05:23:31;98105.19;;;14.91;51.26
78488;BME280;67885;49.758;9.582;2023-04-24T05:25:57;98120.28;;;14.98;51.65
78488;BME280;67885;49.758;9.582;2023-04-24T05:28:24;98091.44;;;14.79;51.74
78488;BME280;67885;49.758;9.582;2023-04-24T05:30:53;98127.47;;;14.98;51.33
78488;BME280;67885;49.758;9.582;2023-04-24T05:33:20;98128.69;;;14.87;51.37
78488;BME280;67885;49.758;9.582;2023-04-24T05:35:47;98131.53;;;14.86;52.03
78488;BME280;67885;49.758;9.582;2023-04-24T05:38:14;98138.38;;;14.88;51.28
78488;BME280;67885;49.758;9.582;2023-04-24T05:40:44;98151.69;;;14.88;51.16
78488;BME280;67885;49.758;9.582;2023-04-24T05:43:11;98156.91;;;14.81;50.60
78488;BME280;67885;49.758;9.582;2023-04-24T05:45:38;98142.13;;;14.71;50.57
78488;BME280;67885;49.758;9.582;2023-04-24T05:48:05;98156.09;;;14.73;50.42
78488;BME280;67885;49.758;9.582;2023-04-24T05:50:31;98165.28;;;14.70;50.83
78488;BME280;67885;49.758;9.582;2023-04-24T05:52:58;98156.47;;;14.70;51.25
78488;BME280;67885;49.758;9.582;2023-04-24T05:55:26;98160.13;;;14.69;50.69
78488;BME280;67885;49.758;9.582;2023-04-24T05:57:54;98167.13;;;14.70;51.27
78488;BME280;67885;49.758;9.582;2023-04-24T06:00:21;98185.41;;;14.73;51.35
78488;BME280;67885;49.758;9.582;2023-04-24T06:02:48;98187.22;;;14.80;51.71
78488;BME280;67885;49.758;9.582;2023-04-24T06:05:15;98185.16;;;14.91;51.68
78488;BME280;67885;49.758;9.582;2023-04-24T06:07:42;98189.09;;;15.03;50.80
78488;BME280;67885;49.758;9.582;2023-04-24T06:10:09;98185.06;;;15.07;50.47
78488;BME280;67885;49.758;9.582;2023-04-24T06:12:36;98181.47;;;15.15;50.58
78488;BME280;67885;49.758;9.582;2023-04-24T06:15:05;98177.19;;;15.14;50.55
78488;BME280;67885;49.758;9.582;2023-04-24T06:17:32;98191.94;;;15.25;50.07
78488;BME280;67885;49.758;9.582;2023-04-24T06:19:59;98187.72;;;15.30;49.05
78488;BME280;67885;49.758;9.582;2023-04-24T06:22:26;98177.69;;;15.32;48.33
78488;BME280;67885;49.758;9.582;2023-04-24T06:24:52;98191.25;;;15.46;50.42
78488;BME280;67885;49.758;9.582;2023-04-24T06:27:19;98182.22;;;15.32;49.64
78488;BME280;67885;49.758;9.582;2023-04-24T06:29:45;98178.44;;;15.64;49.02
78488;BME280;67885;49.758;9.582;2023-04-24T06:32:19;98197.81;;;15.81;49.04
78488;BME280;67885;49.758;9.582;2023-04-24T06:34:45;98198.03;;;15.95;50.96
78488;BME280;67885;49.758;9.582;2023-04-24T06:37:12;98204.03;;;16.12;47.76
78488;BME280;67885;49.758;9.582;2023-04-24T06:39:39;98183.41;;;16.21;46.38
78488;BME280;67885;49.758;9.582;2023-04-24T06:42:05;98173.91;;;16.18;45.61
78488;BME280;67885;49.758;9.582;2023-04-24T06:44:33;98184.59;;;16.18;47.51
78488;BME280;67885;49.758;9.582;2023-04-24T06:47:03;98194.94;;;16.36;47.91
78488;BME280;67885;49.758;9.582;2023-04-24T06:49:31;98194.06;;;16.50;46.29
78488;BME280;67885;49.758;9.582;2023-04-24T06:51:57;98143.31;;;16.35;46.06
78488;BME280;67885;49.758;9.582;2023-04-24T06:54:24;98184.22;;;16.66;46.67
78488;BME280;67885;49.758;9.582;2023-04-24T06:56:51;98179.88;;;16.65;44.97
78488;BME280;67885;49.758;9.582;2023-04-24T06:59:17;98212.13;;;16.63;43.88
78488;BME280;67885;49.758;9.582;2023-04-24T07:01:44;98185.41;;;16.63;44.82
78488;BME280;67885;49.758;9.582;2023-04-24T07:04:10;98202.25;;;16.64;44.15
78488;BME280;67885;49.758;9.582;2023-04-24T07:06:39;98195.16;;;16.56;43.98
78488;BME280;67885;49.758;9.582;2023-04-24T07:09:06;98187.63;;;16.45;44.59
78488;BME280;67885;49.758;9.582;2023-04-24T07:11:34;98202.19;;;16.57;44.76
78488;BME280;67885;49.758;9.582;2023-04-24T07:14:00;98159.25;;;16.44;45.44
78488;BME280;67885;49.758;9.582;2023-04-24T07:16:27;98204.44;;;16.75;44.91
78488;BME280;67885;49.758;9.582;2023-04-24T07:18:55;98202.50;;;16.84;44.22
78488;BME280;67885;49.758;9.582;2023-04-24T07:21:22;98200.56;;;16.93;44.25
78488;BME280;67885;49.758;9.582;2023-04-24T07:23:49;98212.72;;;16.95;44.20
78488;BME280;67885;49.758;9.582;2023-04-24T07:26:16;98217.00;;;16.90;44.24
78488;BME280;67885;49.758;9.582;2023-04-24T07:28:43;98213.84;;;16.71;44.62
78488;BME280;67885;49.758;9.582;2023-04-24T07:31:11;98214.91;;;16.70;43.79
78488;BME280;67885;49.758;9.582;2023-04-24T07:33:38;98197.78;;;16.49;43.44
78488;BME280;67885;49.758;9.582;2023-04-24T07:36:04;98214.81;;;16.48;43.96
78488;BME280;67885;49.758;9.582;2023-04-24T07:38:31;98211.78;;;16.37;44.35
78488;BME280;67885;49.758;9.582;2023-04-24T07:40:59;98205.97;;;16.18;43.26
78488;BME280;67885;49.758;9.582;2023-04-24T07:43:26;98211.09;;;16.05;44.09
78488;BME280;67885;49.758;9.582;2023-04-24T07:45:53;98230.91;;;15.95;45.00
78488;BME280;67885;49.758;9.582;2023-04-24T07:48:20;98209.63;;;15.87;45.08
78488;BME280;67885;49.758;9.582;2023-04-24T07:50:47;98214.97;;;15.87;45.07
78488;BME280;67885;49.758;9.582;2023-04-24T07:53:14;98228.97;;;15.89;44.15
78488;BME280;67885;49.758;9.582;2023-04-24T07:55:40;98204.47;;;15.62;44.67
78488;BME280;67885;49.758;9.582;2023-04-24T07:58:08;98227.97;;;15.67;44.68
78488;BME280;67885;49.758;9.582;2023-04-24T08:00:35;98195.84;;;15.37;45.58
78488;BME280;67885;49.758;9.582;2023-04-24T08:03:02;98226.47;;;15.64;44.19
78488;BME280;67885;49.758;9.582;2023-04-24T08:05:28;98242.31;;;15.66;44.81
78488;BME280;67885;49.758;9.582;2023-04-24T08:07:55;98249.78;;;15.47;45.59
78488;BME280;67885;49.758;9.582;2023-04-24T08:10:22;98240.22;;;15.53;46.11
78488;BME280;67885;49.758;9.582;2023-04-24T08:12:49;98167.97;;;14.93;46.06
78488;BME280;67885;49.758;9.582;2023-04-24T08:15:17;98267.34;;;15.42;46.10
78488;BME280;67885;49.758;9.582;2023-04-24T08:17:44;98268.06;;;15.36;47.08
78488;BME280;67885;49.758;9.582;2023-04-24T08:20:11;98157.59;;;14.75;47.96
78488;BME280;67885;49.758;9.582;2023-04-24T08:22:38;98278.31;;;15.47;45.43
78488;BME280;67885;49.758;9.582;2023-04-24T08:25:06;98274.16;;;15.44;45.17
78488;BME280;67885;49.758;9.582;2023-04-24T08:27:33;98278.19;;;15.40;45.55
78488;BME280;67885;49.758;9.582;2023-04-24T08:30:00;98285.00;;;15.43;45.67
78488;BME280;67885;49.758;9.582;2023-04-24T08:32:28;98284.66;;;15.46;46.66
78488;BME280;67885;49.758;9.582;2023-04-24T08:34:55;98281.50;;;15.42;45.91
78488;BME280;67885;49.758;9.582;2023-04-24T08:37:22;98266.03;;;15.38;46.66
78488;BME280;67885;49.758;9.582;2023-04-24T08:39:49;98278.25;;;15.55;46.63
78488;BME280;67885;49.758;9.582;2023-04-24T08:42:17;98280.16;;;15.70;47.42
78488;BME280;67885;49.758;9.582;2023-04-24T08:44:44;98248.00;;;15.63;45.93
78488;BME280;67885;49.758;9.582;2023-04-24T08:47:11;98277.44;;;16.01;46.93
78488;BME280;67885;49.758;9.582;2023-04-24T08:49:39;98281.59;;;16.18;46.08
78488;BME280;67885;49.758;9.582;2023-04-24T08:52:06;98281.16;;;16.45;46.39
78488;BME280;67885;49.758;9.582;2023-04-24T08:54:34;98279.78;;;16.64;46.21
78488;BME280;67885;49.758;9.582;2023-04-24T08:57:02;98281.72;;;16.85;44.77
78488;BME280;67885;49.758;9.582;2023-04-24T08:59:30;98271.38;;;16.97;45.06
78488;BME280;67885;49.758;9.582;2023-04-24T09:01:58;98272.50;;;17.02;43.70
78488;BME280;67885;49.758;9.582;2023-04-24T09:04:25;98274.81;;;17.06;42.86
78488;BME280;67885;49.758;9.582;2023-04-24T09:06:55;98280.97;;;17.06;42.77
78488;BME280;67885;49.758;9.582;2023-04-24T09:09:23;98281.94;;;16.98;41.47
78488;BME280;67885;49.758;9.582;2023-04-24T09:11:50;98253.50;;;16.82;42.24
78488;BME280;67885;49.758;9.582;2023-04-24T09:14:19;98234.81;;;16.67;42.36
78488;BME280;67885;49.758;9.582;2023-04-24T09:16:46;98286.66;;;17.18;41.68
78488;BME280;67885;49.758;9.582;2023-04-24T09:19:13;98257.97;;;17.12;41.61
78488;BME280;67885;49.758;9.582;2023-04-24T09:21:39;98259.03;;;17.11;42.07
78488;BME280;67885;49.758;9.582;2023-04-24T09:24:19;98195.78;;;16.73;41.57
78488;BME280;67885;49.758;9.582;2023-04-24T09:26:49;98270.78;;;17.31;42.24
78488;BME280;67885;49.758;9.582;2023-04-24T09:29:22;98290.78;;;17.35;41.87
78488;BME280;67885;49.758;9.582;2023-04-24T09:31:49;98304.16;;;17.35;41.66
78488;BME280;67885;49.758;9.582;2023-04-24T09:34:21;98302.16;;;17.23;41.30
78488;BME280;67885;49.758;9.582;2023-04-24T09:36:47;98300.97;;;17.10;41.44
78488;BME280;67885;49.758;9.582;2023-04-24T09:39:16;98246.72;;;16.50;42.07
78488;BME280;67885;49.758;9.582;2023-04-24T09:41:46;98292.78;;;16.67;41.09
78488;BME280;67885;49.758;9.582;2023-04-24T09:44:15;98292.97;;;16.50;41.15
78488;BME280;67885;49.758;9.582;2023-04-24T09:46:43;98295.53;;;16.44;41.99
78488;BME280;67885;49.758;9.582;2023-04-24T09:49:12;98307.81;;;16.53;42.09
78488;BME280;67885;49.758;9.582;2023-04-24T09:51:39;98315.09;;;16.59;42.34
78488;BME280;67885;49.758;9.582;2023-04-24T09:54:15;98303.31;;;16.54;41.69
78488;BME280;67885;49.758;9.582;2023-04-24T09:56:43;98309.75;;;16.74;41.29
78488;BME280;67885;49.758;9.582;2023-04-24T09:59:12;98307.00;;;16.82;42.33
78488;BME280;67885;49.758;9.582;2023-04-24T10:01:39;98301.25;;;16.85;41.43
78488;BME280;67885;49.758;9.582;2023-04-24T10:04:15;98308.09;;;16.88;41.23
78488;BME280;67885;49.758;9.582;2023-04-24T10:06:43;98317.81;;;16.89;40.87
78488;BME280;67885;49.758;9.582;2023-04-24T10:09:09;98325.44;;;16.92;41.05
78488;BME280;67885;49.758;9.582;2023-04-24T10:11:42;98300.25;;;16.86;41.36
78488;BME280;67885;49.758;9.582;2023-04-24T10:14:09;98324.06;;;16.96;41.77
78488;BME280;67885;49.758;9.582;2023-04-24T10:16:38;98327.31;;;16.92;40.78
78488;BME280;67885;49.758;9.582;2023-04-24T10:19:06;98333.72;;;16.82;40.42
78488;BME280;67885;49.758;9.582;2023-04-24T10:21:34;98344.78;;;16.64;39.82
78488;BME280;67885;49.758;9.582;2023-04-24T10:24:01;98321.81;;;16.40;40.46
78488;BME280;67885;49.758;9.582;2023-04-24T10:26:29;98325.47;;;16.24;40.89
78488;BME280;67885;49.758;9.582;2023-04-24T10:28:57;98338.22;;;16.14;40.71
78488;BME280;67885;49.758;9.582;2023-04-24T10:31:25;98345.53;;;16.20;40.85
78488;BME280;67885;49.758;9.582;2023-04-24T10:33:53;98356.09;;;16.13;40.90
78488;BME280;67885;49.758;9.582;2023-04-24T10:36:23;98343.91;;;15.96;40.88
78488;BME280;67885;49.758;9.582;2023-04-24T10:38:54;98363.06;;;15.99;40.68
78488;BME280;67885;49.758;9.582;2023-04-24T10:41:25;98362.53;;;16.04;41.57
78488;BME280;67885;49.758;9.582;2023-04-24T10:44:05;98345.88;;;16.02;41.72
78488;BME280;67885;49.758;9.582;2023-04-24T10:46:33;98345.56;;;15.97;40.50
78488;BME280;67885;49.758;9.582;2023-04-24T10:49:04;98385.56;;;16.05;40.91
78488;BME280;67885;49.758;9.582;2023-04-24T10:51:45;98373.63;;;15.93;41.57
78488;BME280;67885;49.758;9.582;2023-04-24T10:54:34;98367.31;;;15.85;42.15
78488;BME280;67885;49.758;9.582;2023-04-24T10:57:26;98380.63;;;15.94;41.65
78488;BME280;67885;49.758;9.582;2023-04-24T11:02:52;98360.38;;;15.76;42.90
78488;BME280;67885;49.758;9.582;2023-04-24T11:05:49;98373.53;;;15.78;41.67
78488;BME280;67885;49.758;9.582;2023-04-24T11:08:14;98381.28;;;15.64;42.02
78488;BME280;67885;49.758;9.582;2023-04-24T11:10:44;98400.63;;;15.66;42.59
78488;BME280;67885;49.758;9.582;2023-04-24T11:13:15;98399.13;;;15.64;42.46
78488;BME280;67885;49.758;9.582;2023-04-24T11:15:42;98389.28;;;15.64;43.02
78488;BME280;67885;49.758;9.582;2023-04-24T11:18:14;98397.94;;;15.66;42.05
78488;BME280;67885;49.758;9.582;2023-04-24T11:20:42;98401.28;;;15.68;42.71
78488;BME280;67885;49.758;9.582;2023-04-24T11:23:12;98383.47;;;15.61;43.14
78488;BME280;67885;49.758;9.582;2023-04-24T11:25:39;98404.19;;;15.59;43.42
78488;BME280;67885;49.758;9.582;2023-04-24T11:28:06;98404.03;;;15.52;43.34
78488;BME280;67885;49.758;9.582;2023-04-24T11:30:33;98424.72;;;15.50;44.13
78488;BME280;67885;49.758;9.582;2023-04-24T11:33:04;98409.75;;;15.41;44.38
78488;BME280;67885;49.758;9.582;2023-04-24T11:35:40;98404.94;;;15.36;43.68
78488;BME280;67885;49.758;9.582;2023-04-24T11:38:07;98419.34;;;15.58;45.73
78488;BME280;67885;49.758;9.582;2023-04-24T11:40:34;98416.91;;;15.80;45.80
78488;BME280;67885;49.758;9.582;2023-04-24T11:43:01;98410.97;;;16.01;46.67
78488;BME280;67885;49.758;9.582;2023-04-24T11:45:28;98416.47;;;16.23;44.89
78488;BME280;67885;49.758;9.582;2023-04-24T11:47:56;98390.59;;;16.23;43.02
78488;BME280;67885;49.758;9.582;2023-04-24T11:50:24;98403.25;;;16.29;42.80
78488;BME280;67885;49.758;9.582;2023-04-24T11:52:53;98400.19;;;16.32;43.51
78488;BME280;67885;49.758;9.582;2023-04-24T11:55:26;98369.31;;;16.30;43.56
78488;BME280;67885;49.758;9.582;2023-04-24T11:57:54;98403.56;;;16.49;44.01
78488;BME280;67885;49.758;9.582;2023-04-24T12:00:25;98445.78;;;16.54;41.17
78488;BME280;67885;49.758;9.582;2023-04-24T12:03:04;98397.38;;;16.49;41.22
78488;BME280;67885;49.758;9.582;2023-04-24T12:05:31;98405.09;;;16.44;41.24
78488;BME280;67885;49.758;9.582;2023-04-24T12:07:59;98396.63;;;16.40;41.31
78488;BME280;67885;49.758;9.582;2023-04-24T12:10:28;98407.16;;;16.42;40.98
78488;BME280;67885;49.758;9.582;2023-04-24T12:12:56;98406.72;;;16.30;41.04
78488;BME280;67885;49.758;9.582;2023-04-24T12:15:24;98400.63;;;16.21;41.97
78488;BME280;67885;49.758;9.582;2023-04-24T12:17:53;98405.06;;;16.29;40.98
78488;BME280;67885;49.758;9.582;2023-04-24T12:20:24;98398.91;;;16.28;41.76
78488;BME280;67885;49.758;9.582;2023-04-24T12:22:53;98402.16;;;16.39;42.18
78488;BME280;67885;49.758;9.582;2023-04-24T12:25:23;98414.72;;;16.53;41.09
78488;BME280;67885;49.758;9.582;2023-04-24T12:27:53;98414.16;;;16.43;40.64
78488;BME280;67885;49.758;9.582;2023-04-24T12:30:20;98408.03;;;16.34;41.21
78488;BME280;67885;49.758;9.582;2023-04-24T12:32:48;98420.69;;;16.40;41.34
78488;BME280;67885;49.758;9.582;2023-04-24T12:35:19;98342.56;;;15.68;40.93
78488;BME280;67885;49.758;9.582;2023-04-24T12:37:47;98412.56;;;16.33;41.21
78488;BME280;67885;49.758;9.582;2023-04-24T12:40:14;98407.56;;;16.30;42.69
78488;BME280;67885;49.758;9.582;2023-04-24T12:42:44;98431.25;;;16.33;42.70
78488;BME280;67885;49.758;9.582;2023-04-24T12:45:12;98419.50;;;16.43;41.74
78488;BME280;67885;49.758;9.582;2023-04-24T12:47:40;98404.84;;;16.39;42.67
78488;BME280;67885;49.758;9.582;2023-04-24T12:50:09;98427.16;;;16.46;42.30
78488;BME280;67885;49.758;9.582;2023-04-24T12:52:36;98402.22;;;16.30;40.85
78488;BME280;67885;49.758;9.582;2023-04-24T12:55:06;98392.84;;;16.11;42.07
78488;BME280;67885;49.758;9.582;2023-04-24T12:57:34;98413.50;;;16.17;42.25
78488;BME280;67885;49.758;9.582;2023-04-24T13:00:07;98420.56;;;16.33;42.40
78488;BME280;67885;49.758;9.582;2023-04-24T13:02:34;98407.56;;;16.30;42.77
78488;BME280;67885;49.758;9.582;2023-04-24T13:05:02;98435.53;;;16.43;43.23
78488;BME280;67885;49.758;9.582;2023-04-24T13:07:29;98427.09;;;16.54;43.19